sensor_id;sensor_type;location;lat;lon;timestamp;P1;durP1;ratioP1;P2;durP2;ratioP2
1887;SDS011;944;51.574;6.980;2023-07-31T00:00:13;5.43;;;2.43;;
1887;SDS011;944;51.574;6.980;2023-07-31T00:02:40;2.67;;;2.43;;
1887;SDS011;944;51.574;6.980;2023-07-31T00:05:13;4.53;;;2.57;;
1887;SDS011;944;51.574;6.980;2023-07-31T00:07:41;3.30;;;2.93;;
1887;SDS011;944;51.574;6.980;2023-07-31T00:10:09;4.83;;;3.97;;
1887;SDS011;944;51.574;6.980;2023-07-31T00:12:37;16.87;;;6.67;;
1887;SDS011;944;51.574;6.980;2023-07-31T00:15:05;14.53;;;8.87;;
1887;SDS011;944;51.574;6.980;2023-07-31T00:17:34;14.03;;;8.40;;
1887;SDS011;944;51.574;6.980;2023-07-31T00:20:04;20.97;;;9.63;;
1887;SDS011;944;51.574;6.980;2023-07-31T00:22:33;17.37;;;9.13;;
1887;SDS011;944;51.574;6.980;2023-07-31T00:25:03;16.60;;;7.80;;
1887;SDS011;944;51.574;6.980;2023-07-31T00:27:34;19.27;;;9.60;;
1887;SDS011;944;51.574;6.980;2023-07-31T00:30:01;20.20;;;9.83;;
1887;SDS011;944;51.574;6.980;2023-07-31T00:32:29;24.93;;;10.93;;
1887;SDS011;944;51.574;6.980;2023-07-31T00:34:56;26.77;;;12.40;;
1887;SDS011;944;51.574;6.980;2023-07-31T00:37:23;25.47;;;11.40;;
1887;SDS011;944;51.574;6.980;2023-07-31T00:43:32;38.47;;;14.43;;
1887;SDS011;944;51.574;6.980;2023-07-31T00:46:01;36.53;;;12.90;;
1887;SDS011;944;51.574;6.980;2023-07-31T00:48:30;39.70;;;12.73;;
1887;SDS011;944;51.574;6.980;2023-07-31T00:50:58;34.93;;;14.50;;
1887;SDS011;944;51.574;6.980;2023-07-31T00:53:26;37.53;;;15.43;;
1887;SDS011;944;51.574;6.980;2023-07-31T00:55:54;43.90;;;15.23;;
1887;SDS011;944;51.574;6.980;2023-07-31T00:58:21;47.23;;;16.50;;
1887;SDS011;944;51.574;6.980;2023-07-31T01:00:49;51.80;;;17.63;;
1887;SDS011;944;51.574;6.980;2023-07-31T01:03:16;44.90;;;15.67;;
1887;SDS011;944;51.574;6.980;2023-07-31T01:05:46;40.70;;;14.10;;
1887;SDS011;944;51.574;6.980;2023-07-31T01:08:24;42.07;;;15.87;;
1887;SDS011;944;51.574;6.980;2023-07-31T01:11:00;39.17;;;14.63;;
1887;SDS011;944;51.574;6.980;2023-07-31T01:13:34;36.97;;;13.37;;
1887;SDS011;944;51.574;6.980;2023-07-31T01:16:04;44.53;;;13.30;;
1887;SDS011;944;51.574;6.980;2023-07-31T01:18:31;39.10;;;15.07;;
1887;SDS011;944;51.574;6.980;2023-07-31T01:21:06;35.73;;;12.60;;
1887;SDS011;944;51.574;6.980;2023-07-31T01:24:16;37.90;;;11.97;;
1887;SDS011;944;51.574;6.980;2023-07-31T01:26:51;43.07;;;11.80;;
1887;SDS011;944;51.574;6.980;2023-07-31T01:29:24;46.27;;;11.27;;
1887;SDS011;944;51.574;6.980;2023-07-31T01:32:01;41.37;;;10.67;;
1887;SDS011;944;51.574;6.980;2023-07-31T01:34:29;40.90;;;9.30;;
1887;SDS011;944;51.574;6.980;2023-07-31T01:36:57;28.03;;;9.57;;
1887;SDS011;944;51.574;6.980;2023-07-31T01:39:24;36.33;;;10.70;;
1887;SDS011;944;51.574;6.980;2023-07-31T01:41:53;33.33;;;9.43;;
1887;SDS011;944;51.574;6.980;2023-07-31T01:44:20;42.03;;;9.30;;
1887;SDS011;944;51.574;6.980;2023-07-31T01:46:47;42.03;;;10.37;;
1887;SDS011;944;51.574;6.980;2023-07-31T01:49:15;31.40;;;9.20;;
1887;SDS011;944;51.574;6.980;2023-07-31T01:51:42;24.83;;;8.10;;
1887;SDS011;944;51.574;6.980;2023-07-31T01:54:09;31.10;;;8.30;;
1887;SDS011;944;51.574;6.980;2023-07-31T01:56:36;25.53;;;8.53;;
1887;SDS011;944;51.574;6.980;2023-07-31T01:59:04;21.87;;;8.40;;
1887;SDS011;944;51.574;6.980;2023-07-31T02:01:31;41.53;;;11.00;;
1887;SDS011;944;51.574;6.980;2023-07-31T02:03:58;30.53;;;9.07;;
1887;SDS011;944;51.574;6.980;2023-07-31T02:06:25;28.80;;;8.23;;
1887;SDS011;944;51.574;6.980;2023-07-31T02:08:52;24.07;;;8.77;;
1887;SDS011;944;51.574;6.980;2023-07-31T02:11:19;29.73;;;8.00;;
1887;SDS011;944;51.574;6.980;2023-07-31T02:13:46;25.47;;;8.70;;
1887;SDS011;944;51.574;6.980;2023-07-31T02:16:15;23.97;;;9.20;;
1887;SDS011;944;51.574;6.980;2023-07-31T02:18:42;32.70;;;8.23;;
1887;SDS011;944;51.574;6.980;2023-07-31T02:21:09;24.80;;;7.70;;
1887;SDS011;944;51.574;6.980;2023-07-31T02:23:36;23.83;;;7.87;;
1887;SDS011;944;51.574;6.980;2023-07-31T02:26:03;27.23;;;7.23;;
1887;SDS011;944;51.574;6.980;2023-07-31T02:28:30;25.00;;;7.70;;
1887;SDS011;944;51.574;6.980;2023-07-31T02:30:57;30.00;;;7.37;;
1887;SDS011;944;51.574;6.980;2023-07-31T02:33:25;27.17;;;8.40;;
1887;SDS011;944;51.574;6.980;2023-07-31T02:35:52;28.07;;;7.43;;
1887;SDS011;944;51.574;6.980;2023-07-31T02:38:19;32.07;;;8.17;;
1887;SDS011;944;51.574;6.980;2023-07-31T02:40:46;34.37;;;8.23;;
1887;SDS011;944;51.574;6.980;2023-07-31T02:43:13;28.27;;;7.57;;
1887;SDS011;944;51.574;6.980;2023-07-31T02:45:40;26.97;;;7.80;;
1887;SDS011;944;51.574;6.980;2023-07-31T02:48:07;28.97;;;7.30;;
1887;SDS011;944;51.574;6.980;2023-07-31T02:50:36;21.73;;;6.77;;
1887;SDS011;944;51.574;6.980;2023-07-31T02:53:03;19.37;;;6.53;;
1887;SDS011;944;51.574;6.980;2023-07-31T02:55:30;20.97;;;6.80;;
1887;SDS011;944;51.574;6.980;2023-07-31T02:57:57;18.67;;;7.20;;
1887;SDS011;944;51.574;6.980;2023-07-31T03:00:24;28.60;;;7.47;;
1887;SDS011;944;51.574;6.980;2023-07-31T03:02:53;26.83;;;8.10;;
1887;SDS011;944;51.574;6.980;2023-07-31T03:05:20;23.17;;;7.37;;
1887;SDS011;944;51.574;6.980;2023-07-31T03:07:48;22.07;;;6.87;;
1887;SDS011;944;51.574;6.980;2023-07-31T03:10:16;33.97;;;7.00;;
1887;SDS011;944;51.574;6.980;2023-07-31T03:12:46;27.73;;;7.60;;
1887;SDS011;944;51.574;6.980;2023-07-31T03:15:13;21.47;;;7.60;;
1887;SDS011;944;51.574;6.980;2023-07-31T03:17:40;29.10;;;8.50;;
1887;SDS011;944;51.574;6.980;2023-07-31T03:20:08;27.73;;;8.43;;
1887;SDS011;944;51.574;6.980;2023-07-31T03:22:36;23.77;;;7.33;;
1887;SDS011;944;51.574;6.980;2023-07-31T03:25:04;21.03;;;6.43;;
1887;SDS011;944;51.574;6.980;2023-07-31T03:27:34;31.70;;;7.57;;
1887;SDS011;944;51.574;6.980;2023-07-31T03:30:02;18.73;;;6.50;;
1887;SDS011;944;51.574;6.980;2023-07-31T03:32:30;22.10;;;6.97;;
1887;SDS011;944;51.574;6.980;2023-07-31T03:34:57;27.17;;;6.70;;
1887;SDS011;944;51.574;6.980;2023-07-31T03:37:24;19.17;;;6.47;;
1887;SDS011;944;51.574;6.980;2023-07-31T03:39:51;24.50;;;6.70;;
1887;SDS011;944;51.574;6.980;2023-07-31T03:42:19;18.07;;;5.47;;
1887;SDS011;944;51.574;6.980;2023-07-31T03:44:46;18.73;;;6.00;;
1887;SDS011;944;51.574;6.980;2023-07-31T03:47:13;18.73;;;6.13;;
1887;SDS011;944;51.574;6.980;2023-07-31T03:49:40;19.57;;;7.07;;
1887;SDS011;944;51.574;6.980;2023-07-31T03:52:07;24.43;;;7.10;;
1887;SDS011;944;51.574;6.980;2023-07-31T03:54:34;20.43;;;6.17;;
1887;SDS011;944;51.574;6.980;2023-07-31T03:57:01;17.50;;;6.33;;
1887;SDS011;944;51.574;6.980;2023-07-31T03:59:30;22.07;;;6.50;;
1887;SDS011;944;51.574;6.980;2023-07-31T04:02:04;22.73;;;7.50;;
1887;SDS011;944;51.574;6.980;2023-07-31T04:04:31;14.57;;;6.17;;
1887;SDS011;944;51.574;6.980;2023-07-31T04:06:58;27.63;;;6.37;;
1887;SDS011;944;51.574;6.980;2023-07-31T04:09:25;23.73;;;6.40;;
1887;SDS011;944;51.574;6.980;2023-07-31T04:11:52;23.10;;;6.00;;
1887;SDS011;944;51.574;6.980;2023-07-31T04:14:19;17.27;;;6.63;;
1887;SDS011;944;51.574;6.980;2023-07-31T04:16:47;13.93;;;6.40;;
1887;SDS011;944;51.574;6.980;2023-07-31T04:19:14;19.60;;;6.30;;
1887;SDS011;944;51.574;6.980;2023-07-31T04:21:41;16.13;;;5.90;;
1887;SDS011;944;51.574;6.980;2023-07-31T04:24:08;17.27;;;6.50;;
1887;SDS011;944;51.574;6.980;2023-07-31T04:26:35;30.40;;;7.27;;
1887;SDS011;944;51.574;6.980;2023-07-31T04:29:05;12.00;;;5.50;;
1887;SDS011;944;51.574;6.980;2023-07-31T04:31:32;19.57;;;5.37;;
1887;SDS011;944;51.574;6.980;2023-07-31T04:34:01;15.40;;;5.53;;
1887;SDS011;944;51.574;6.980;2023-07-31T04:36:28;14.53;;;5.53;;
1887;SDS011;944;51.574;6.980;2023-07-31T04:38:55;20.70;;;5.90;;
1887;SDS011;944;51.574;6.980;2023-07-31T04:41:22;14.73;;;6.30;;
1887;SDS011;944;51.574;6.980;2023-07-31T04:43:49;19.80;;;5.67;;
1887;SDS011;944;51.574;6.980;2023-07-31T04:46:16;19.00;;;5.40;;
1887;SDS011;944;51.574;6.980;2023-07-31T04:48:43;20.10;;;6.37;;
1887;SDS011;944;51.574;6.980;2023-07-31T04:51:11;17.03;;;5.77;;
1887;SDS011;944;51.574;6.980;2023-07-31T04:53:38;29.73;;;7.40;;
1887;SDS011;944;51.574;6.980;2023-07-31T04:56:05;23.03;;;6.93;;
1887;SDS011;944;51.574;6.980;2023-07-31T04:58:32;15.33;;;5.70;;
1887;SDS011;944;51.574;6.980;2023-07-31T05:00:59;18.87;;;6.37;;
1887;SDS011;944;51.574;6.980;2023-07-31T05:03:26;20.50;;;6.27;;
1887;SDS011;944;51.574;6.980;2023-07-31T05:05:53;19.57;;;7.07;;
1887;SDS011;944;51.574;6.980;2023-07-31T05:08:22;21.20;;;6.50;;
1887;SDS011;944;51.574;6.980;2023-07-31T05:10:49;16.53;;;6.03;;
1887;SDS011;944;51.574;6.980;2023-07-31T05:13:16;24.43;;;7.00;;
1887;SDS011;944;51.574;6.980;2023-07-31T05:15:43;14.90;;;6.07;;
1887;SDS011;944;51.574;6.980;2023-07-31T05:18:11;19.73;;;6.70;;
1887;SDS011;944;51.574;6.980;2023-07-31T05:20:38;19.20;;;7.00;;
1887;SDS011;944;51.574;6.980;2023-07-31T05:23:05;16.83;;;6.90;;
1887;SDS011;944;51.574;6.980;2023-07-31T05:25:34;10.13;;;5.70;;
1887;SDS011;944;51.574;6.980;2023-07-31T05:28:01;18.60;;;7.10;;
1887;SDS011;944;51.574;6.980;2023-07-31T05:30:29;18.67;;;7.27;;
1887;SDS011;944;51.574;6.980;2023-07-31T05:32:56;13.70;;;5.83;;
1887;SDS011;944;51.574;6.980;2023-07-31T05:35:23;22.53;;;6.93;;
1887;SDS011;944;51.574;6.980;2023-07-31T05:37:50;18.03;;;6.00;;
1887;SDS011;944;51.574;6.980;2023-07-31T05:40:17;16.77;;;6.60;;
1887;SDS011;944;51.574;6.980;2023-07-31T05:42:46;16.73;;;7.03;;
1887;SDS011;944;51.574;6.980;2023-07-31T05:45:13;14.60;;;7.10;;
1887;SDS011;944;51.574;6.980;2023-07-31T05:47:40;20.47;;;6.90;;
1887;SDS011;944;51.574;6.980;2023-07-31T05:50:07;16.70;;;7.73;;
1887;SDS011;944;51.574;6.980;2023-07-31T05:52:36;21.30;;;7.67;;
1887;SDS011;944;51.574;6.980;2023-07-31T05:55:04;18.90;;;8.37;;
1887;SDS011;944;51.574;6.980;2023-07-31T06:01:16;28.93;;;8.90;;
1887;SDS011;944;51.574;6.980;2023-07-31T06:03:43;18.93;;;8.10;;
1887;SDS011;944;51.574;6.980;2023-07-31T06:06:10;20.70;;;8.20;;
1887;SDS011;944;51.574;6.980;2023-07-31T06:08:38;23.60;;;9.10;;
1887;SDS011;944;51.574;6.980;2023-07-31T06:11:06;15.90;;;8.63;;
1887;SDS011;944;51.574;6.980;2023-07-31T06:13:34;24.17;;;8.33;;
1887;SDS011;944;51.574;6.980;2023-07-31T06:16:01;18.70;;;8.47;;
1887;SDS011;944;51.574;6.980;2023-07-31T06:18:35;18.30;;;8.43;;
1887;SDS011;944;51.574;6.980;2023-07-31T06:21:02;16.30;;;7.80;;
1887;SDS011;944;51.574;6.980;2023-07-31T06:23:29;28.10;;;9.27;;
1887;SDS011;944;51.574;6.980;2023-07-31T06:25:56;23.10;;;9.43;;
1887;SDS011;944;51.574;6.980;2023-07-31T06:32:04;21.63;;;9.90;;
1887;SDS011;944;51.574;6.980;2023-07-31T06:34:35;21.60;;;9.83;;
1887;SDS011;944;51.574;6.980;2023-07-31T06:37:07;14.93;;;8.73;;
1887;SDS011;944;51.574;6.980;2023-07-31T06:59:05;19.60;;;10.30;;
1887;SDS011;944;51.574;6.980;2023-07-31T07:01:46;19.17;;;9.30;;
1887;SDS011;944;51.574;6.980;2023-07-31T07:12:37;13.27;;;7.80;;
1887;SDS011;944;51.574;6.980;2023-07-31T07:18:52;16.20;;;8.40;;
1887;SDS011;944;51.574;6.980;2023-07-31T07:21:27;14.70;;;7.73;;
1887;SDS011;944;51.574;6.980;2023-07-31T07:24:08;14.70;;;7.80;;
1887;SDS011;944;51.574;6.980;2023-07-31T07:26:44;14.53;;;8.00;;
1887;SDS011;944;51.574;6.980;2023-07-31T07:33:01;13.70;;;8.20;;
1887;SDS011;944;51.574;6.980;2023-07-31T07:35:40;11.13;;;7.20;;
1887;SDS011;944;51.574;6.980;2023-07-31T07:38:18;14.33;;;8.10;;
1887;SDS011;944;51.574;6.980;2023-07-31T07:40:46;20.67;;;8.37;;
1887;SDS011;944;51.574;6.980;2023-07-31T07:43:19;16.57;;;8.27;;
1887;SDS011;944;51.574;6.980;2023-07-31T07:45:49;15.90;;;7.37;;
1887;SDS011;944;51.574;6.980;2023-07-31T07:48:18;16.87;;;8.07;;
1887;SDS011;944;51.574;6.980;2023-07-31T07:51:04;19.70;;;6.80;;
1887;SDS011;944;51.574;6.980;2023-07-31T07:53:44;13.40;;;6.83;;
1887;SDS011;944;51.574;6.980;2023-07-31T07:56:16;14.70;;;7.40;;
1887;SDS011;944;51.574;6.980;2023-07-31T07:58:48;13.53;;;7.63;;
1887;SDS011;944;51.574;6.980;2023-07-31T08:01:15;8.13;;;5.93;;
1887;SDS011;944;51.574;6.980;2023-07-31T08:03:46;13.80;;;6.90;;
1887;SDS011;944;51.574;6.980;2023-07-31T08:06:18;12.17;;;6.63;;
1887;SDS011;944;51.574;6.980;2023-07-31T08:19:36;8.10;;;5.50;;
1887;SDS011;944;51.574;6.980;2023-07-31T08:22:25;8.03;;;5.30;;
1887;SDS011;944;51.574;6.980;2023-07-31T08:25:01;10.20;;;5.63;;
1887;SDS011;944;51.574;6.980;2023-07-31T08:27:56;11.10;;;5.20;;
1887;SDS011;944;51.574;6.980;2023-07-31T08:30:42;15.73;;;5.57;;
1887;SDS011;944;51.574;6.980;2023-07-31T08:33:23;11.03;;;5.37;;
1887;SDS011;944;51.574;6.980;2023-07-31T08:40:01;9.07;;;6.30;;
1887;SDS011;944;51.574;6.980;2023-07-31T08:43:08;13.07;;;5.47;;
1887;SDS011;944;51.574;6.980;2023-07-31T08:45:42;10.50;;;6.40;;
1887;SDS011;944;51.574;6.980;2023-07-31T08:48:27;11.83;;;6.40;;
1887;SDS011;944;51.574;6.980;2023-07-31T08:50:58;12.90;;;6.83;;
1887;SDS011;944;51.574;6.980;2023-07-31T08:53:47;10.93;;;7.40;;
1887;SDS011;944;51.574;6.980;2023-07-31T08:59:31;15.53;;;8.10;;
1887;SDS011;944;51.574;6.980;2023-07-31T09:02:05;11.07;;;7.70;;
1887;SDS011;944;51.574;6.980;2023-07-31T09:08:05;13.70;;;7.37;;
1887;SDS011;944;51.574;6.980;2023-07-31T09:10:35;11.10;;;6.40;;
1887;SDS011;944;51.574;6.980;2023-07-31T09:13:10;7.57;;;5.50;;
1887;SDS011;944;51.574;6.980;2023-07-31T09:15:37;8.10;;;5.07;;
1887;SDS011;944;51.574;6.980;2023-07-31T09:18:09;7.93;;;5.47;;
1887;SDS011;944;51.574;6.980;2023-07-31T09:20:37;13.50;;;6.23;;
1887;SDS011;944;51.574;6.980;2023-07-31T09:23:14;13.93;;;6.37;;
1887;SDS011;944;51.574;6.980;2023-07-31T09:25:55;11.80;;;5.57;;
1887;SDS011;944;51.574;6.980;2023-07-31T09:31:13;12.20;;;6.10;;
1887;SDS011;944;51.574;6.980;2023-07-31T09:33:54;12.20;;;5.73;;
1887;SDS011;944;51.574;6.980;2023-07-31T09:36:28;14.07;;;6.70;;
1887;SDS011;944;51.574;6.980;2023-07-31T09:39:01;13.50;;;6.20;;
1887;SDS011;944;51.574;6.980;2023-07-31T09:41:31;9.77;;;6.90;;
1887;SDS011;944;51.574;6.980;2023-07-31T09:44:07;13.37;;;6.83;;
1887;SDS011;944;51.574;6.980;2023-07-31T09:46:35;10.03;;;6.47;;
1887;SDS011;944;51.574;6.980;2023-07-31T09:49:03;10.60;;;6.43;;
1887;SDS011;944;51.574;6.980;2023-07-31T09:51:35;10.90;;;6.30;;
1887;SDS011;944;51.574;6.980;2023-07-31T09:54:08;9.77;;;6.50;;
1887;SDS011;944;51.574;6.980;2023-07-31T09:56:38;9.17;;;6.73;;
1887;SDS011;944;51.574;6.980;2023-07-31T09:59:12;12.47;;;7.10;;
1887;SDS011;944;51.574;6.980;2023-07-31T10:01:41;13.67;;;6.70;;
1887;SDS011;944;51.574;6.980;2023-07-31T10:04:09;11.60;;;7.50;;
1887;SDS011;944;51.574;6.980;2023-07-31T10:06:37;11.80;;;6.67;;
1887;SDS011;944;51.574;6.980;2023-07-31T10:09:09;8.87;;;6.63;;
1887;SDS011;944;51.574;6.980;2023-07-31T10:11:38;17.77;;;6.50;;
1887;SDS011;944;51.574;6.980;2023-07-31T10:14:09;9.60;;;5.90;;
1887;SDS011;944;51.574;6.980;2023-07-31T10:16:39;17.33;;;6.93;;
1887;SDS011;944;51.574;6.980;2023-07-31T10:19:12;12.30;;;6.20;;
1887;SDS011;944;51.574;6.980;2023-07-31T10:25:19;6.90;;;5.80;;
1887;SDS011;944;51.574;6.980;2023-07-31T10:53:58;11.47;;;6.33;;
1887;SDS011;944;51.574;6.980;2023-07-31T10:57:19;8.50;;;6.17;;
1887;SDS011;944;51.574;6.980;2023-07-31T11:03:14;10.47;;;6.33;;
1887;SDS011;944;51.574;6.980;2023-07-31T11:15:04;9.37;;;5.83;;
1887;SDS011;944;51.574;6.980;2023-07-31T11:21:18;13.90;;;5.67;;
1887;SDS011;944;51.574;6.980;2023-07-31T11:24:44;7.37;;;5.40;;
1887;SDS011;944;51.574;6.980;2023-07-31T11:27:44;10.17;;;5.70;;
1887;SDS011;944;51.574;6.980;2023-07-31T11:33:17;7.90;;;5.20;;
1887;SDS011;944;51.574;6.980;2023-07-31T11:44:21;12.80;;;7.10;;
1887;SDS011;944;51.574;6.980;2023-07-31T11:50:35;10.20;;;5.00;;
1887;SDS011;944;51.574;6.980;2023-07-31T11:59:07;8.97;;;5.47;;
1887;SDS011;944;51.574;6.980;2023-07-31T12:00:13;10.40;;;5.30;;
1887;SDS011;944;51.574;6.980;2023-07-31T12:03:09;10.73;;;5.27;;
1887;SDS011;944;51.574;6.980;2023-07-31T12:12:57;16.17;;;5.50;;
1887;SDS011;944;51.574;6.980;2023-07-31T12:15:43;11.37;;;5.37;;
1887;SDS011;944;51.574;6.980;2023-07-31T12:18:18;10.70;;;5.50;;
1887;SDS011;944;51.574;6.980;2023-07-31T12:20:56;9.60;;;5.60;;
1887;SDS011;944;51.574;6.980;2023-07-31T12:30:25;10.70;;;4.97;;
1887;SDS011;944;51.574;6.980;2023-07-31T12:37:38;9.67;;;5.27;;
1887;SDS011;944;51.574;6.980;2023-07-31T12:40:14;11.20;;;5.37;;
1887;SDS011;944;51.574;6.980;2023-07-31T14:03:35;8.27;;;4.90;;
1887;SDS011;944;51.574;6.980;2023-07-31T14:19:05;8.60;;;5.63;;
1887;SDS011;944;51.574;6.980;2023-07-31T14:57:30;11.27;;;4.70;;
1887;SDS011;944;51.574;6.980;2023-07-31T15:07:58;7.37;;;5.00;;
1887;SDS011;944;51.574;6.980;2023-07-31T15:10:25;8.40;;;5.10;;
1887;SDS011;944;51.574;6.980;2023-07-31T15:12:52;8.60;;;5.40;;
1887;SDS011;944;51.574;6.980;2023-07-31T15:15:19;8.40;;;4.87;;
1887;SDS011;944;51.574;6.980;2023-07-31T15:17:46;7.70;;;5.47;;
1887;SDS011;944;51.574;6.980;2023-07-31T15:20:13;8.20;;;6.03;;
1887;SDS011;944;51.574;6.980;2023-07-31T15:22:40;8.83;;;5.77;;
1887;SDS011;944;51.574;6.980;2023-07-31T15:25:11;8.70;;;5.90;;
1887;SDS011;944;51.574;6.980;2023-07-31T15:27:39;12.10;;;6.10;;
1887;SDS011;944;51.574;6.980;2023-07-31T15:30:09;9.53;;;6.07;;
1887;SDS011;944;51.574;6.980;2023-07-31T15:32:39;11.50;;;6.20;;
1887;SDS011;944;51.574;6.980;2023-07-31T15:35:06;8.80;;;5.73;;
1887;SDS011;944;51.574;6.980;2023-07-31T15:37:34;9.17;;;6.27;;
1887;SDS011;944;51.574;6.980;2023-07-31T15:43:43;7.70;;;5.47;;
1887;SDS011;944;51.574;6.980;2023-07-31T15:46:13;11.80;;;6.30;;
1887;SDS011;944;51.574;6.980;2023-07-31T15:48:40;10.37;;;5.57;;
1887;SDS011;944;51.574;6.980;2023-07-31T15:51:12;9.30;;;6.37;;
1887;SDS011;944;51.574;6.980;2023-07-31T15:53:52;15.70;;;6.70;;
1887;SDS011;944;51.574;6.980;2023-07-31T16:00:43;10.27;;;6.20;;
1887;SDS011;944;51.574;6.980;2023-07-31T16:03:40;14.13;;;5.90;;
1887;SDS011;944;51.574;6.980;2023-07-31T16:06:35;12.53;;;5.60;;
1887;SDS011;944;51.574;6.980;2023-07-31T16:09:09;9.90;;;5.40;;
1887;SDS011;944;51.574;6.980;2023-07-31T16:11:40;10.80;;;5.07;;
1887;SDS011;944;51.574;6.980;2023-07-31T16:14:08;10.90;;;5.40;;
1887;SDS011;944;51.574;6.980;2023-07-31T16:16:38;8.93;;;5.20;;
1887;SDS011;944;51.574;6.980;2023-07-31T16:19:05;11.67;;;5.60;;
1887;SDS011;944;51.574;6.980;2023-07-31T16:21:35;11.83;;;6.10;;
1887;SDS011;944;51.574;6.980;2023-07-31T16:24:05;11.03;;;6.30;;
1887;SDS011;944;51.574;6.980;2023-07-31T16:26:32;11.17;;;6.03;;
1887;SDS011;944;51.574;6.980;2023-07-31T16:28:59;12.50;;;6.50;;
1887;SDS011;944;51.574;6.980;2023-07-31T16:31:26;9.17;;;6.30;;
1887;SDS011;944;51.574;6.980;2023-07-31T16:33:57;13.60;;;7.20;;
1887;SDS011;944;51.574;6.980;2023-07-31T16:40:09;13.30;;;6.30;;
1887;SDS011;944;51.574;6.980;2023-07-31T16:42:38;10.70;;;6.83;;
1887;SDS011;944;51.574;6.980;2023-07-31T16:45:08;12.63;;;7.00;;
1887;SDS011;944;51.574;6.980;2023-07-31T16:47:37;16.13;;;7.23;;
1887;SDS011;944;51.574;6.980;2023-07-31T16:50:06;13.80;;;6.50;;
1887;SDS011;944;51.574;6.980;2023-07-31T16:56:19;15.03;;;6.80;;
1887;SDS011;944;51.574;6.980;2023-07-31T16:59:06;18.93;;;7.37;;
1887;SDS011;944;51.574;6.980;2023-07-31T17:01:38;12.80;;;8.20;;
1887;SDS011;944;51.574;6.980;2023-07-31T17:04:07;8.97;;;6.13;;
1887;SDS011;944;51.574;6.980;2023-07-31T17:06:47;14.47;;;6.00;;
1887;SDS011;944;51.574;6.980;2023-07-31T17:09:14;12.10;;;6.93;;
1887;SDS011;944;51.574;6.980;2023-07-31T17:11:47;18.67;;;5.67;;
1887;SDS011;944;51.574;6.980;2023-07-31T17:50:47;8.33;;;4.60;;
1887;SDS011;944;51.574;6.980;2023-07-31T17:53:37;10.50;;;4.50;;
1887;SDS011;944;51.574;6.980;2023-07-31T17:56:33;6.17;;;4.40;;
1887;SDS011;944;51.574;6.980;2023-07-31T17:59:10;6.03;;;4.20;;
1887;SDS011;944;51.574;6.980;2023-07-31T18:01:51;7.70;;;3.90;;
1887;SDS011;944;51.574;6.980;2023-07-31T18:04:22;6.20;;;4.57;;
1887;SDS011;944;51.574;6.980;2023-07-31T18:06:51;8.63;;;4.17;;
1887;SDS011;944;51.574;6.980;2023-07-31T18:09:21;7.43;;;4.23;;
1887;SDS011;944;51.574;6.980;2023-07-31T18:11:48;5.37;;;4.07;;
1887;SDS011;944;51.574;6.980;2023-07-31T18:14:15;4.97;;;3.80;;
1887;SDS011;944;51.574;6.980;2023-07-31T18:16:46;6.60;;;3.77;;
1887;SDS011;944;51.574;6.980;2023-07-31T18:19:21;6.97;;;4.10;;
1887;SDS011;944;51.574;6.980;2023-07-31T18:21:56;12.53;;;4.47;;
1887;SDS011;944;51.574;6.980;2023-07-31T18:24:36;7.03;;;3.53;;
1887;SDS011;944;51.574;6.980;2023-07-31T18:27:14;5.70;;;3.77;;
1887;SDS011;944;51.574;6.980;2023-07-31T18:29:46;6.43;;;3.80;;
1887;SDS011;944;51.574;6.980;2023-07-31T18:32:37;5.40;;;3.60;;
1887;SDS011;944;51.574;6.980;2023-07-31T18:35:08;7.53;;;3.83;;
1887;SDS011;944;51.574;6.980;2023-07-31T18:37:44;6.33;;;3.70;;
1887;SDS011;944;51.574;6.980;2023-07-31T18:40:11;5.43;;;3.70;;
1887;SDS011;944;51.574;6.980;2023-07-31T18:42:48;6.17;;;4.03;;
1887;SDS011;944;51.574;6.980;2023-07-31T18:45:39;8.00;;;3.60;;
1887;SDS011;944;51.574;6.980;2023-07-31T18:48:13;6.10;;;3.90;;
1887;SDS011;944;51.574;6.980;2023-07-31T18:51:28;5.47;;;4.00;;
1887;SDS011;944;51.574;6.980;2023-07-31T18:54:11;6.57;;;3.70;;
1887;SDS011;944;51.574;6.980;2023-07-31T18:56:46;7.07;;;4.10;;
1887;SDS011;944;51.574;6.980;2023-07-31T18:59:26;6.23;;;3.73;;
1887;SDS011;944;51.574;6.980;2023-07-31T19:01:59;5.23;;;4.00;;
1887;SDS011;944;51.574;6.980;2023-07-31T19:04:26;4.63;;;4.13;;
1887;SDS011;944;51.574;6.980;2023-07-31T19:07:03;8.20;;;4.63;;
1887;SDS011;944;51.574;6.980;2023-07-31T19:09:38;5.43;;;4.10;;
1887;SDS011;944;51.574;6.980;2023-07-31T19:12:10;5.70;;;4.33;;
1887;SDS011;944;51.574;6.980;2023-07-31T19:14:44;7.07;;;4.20;;
1887;SDS011;944;51.574;6.980;2023-07-31T19:17:14;7.07;;;3.90;;
1887;SDS011;944;51.574;6.980;2023-07-31T19:23:27;5.37;;;3.93;;
1887;SDS011;944;51.574;6.980;2023-07-31T19:26:00;5.57;;;3.30;;
1887;SDS011;944;51.574;6.980;2023-07-31T19:28:30;3.77;;;3.47;;
1887;SDS011;944;51.574;6.980;2023-07-31T19:31:00;9.13;;;3.93;;
1887;SDS011;944;51.574;6.980;2023-07-31T19:33:27;4.10;;;3.40;;
1887;SDS011;944;51.574;6.980;2023-07-31T19:36:03;4.53;;;3.47;;
1887;SDS011;944;51.574;6.980;2023-07-31T19:38:35;4.17;;;3.20;;
1887;SDS011;944;51.574;6.980;2023-07-31T19:41:06;4.17;;;3.10;;
1887;SDS011;944;51.574;6.980;2023-07-31T19:43:33;4.73;;;3.37;;
1887;SDS011;944;51.574;6.980;2023-07-31T19:46:06;4.60;;;2.87;;
1887;SDS011;944;51.574;6.980;2023-07-31T19:48:39;2.43;;;2.23;;
1887;SDS011;944;51.574;6.980;2023-07-31T19:51:39;3.93;;;2.40;;
1887;SDS011;944;51.574;6.980;2023-07-31T19:58:26;2.83;;;2.63;;
1887;SDS011;944;51.574;6.980;2023-07-31T20:01:12;3.03;;;2.83;;
1887;SDS011;944;51.574;6.980;2023-07-31T20:03:49;5.97;;;2.90;;
1887;SDS011;944;51.574;6.980;2023-07-31T20:06:22;4.97;;;3.70;;
1887;SDS011;944;51.574;6.980;2023-07-31T20:08:59;6.00;;;2.83;;
1887;SDS011;944;51.574;6.980;2023-07-31T20:11:58;6.10;;;3.70;;
1887;SDS011;944;51.574;6.980;2023-07-31T20:14:42;3.83;;;3.03;;
1887;SDS011;944;51.574;6.980;2023-07-31T20:17:37;4.00;;;3.60;;
1887;SDS011;944;51.574;6.980;2023-07-31T20:20:10;4.87;;;3.20;;
1887;SDS011;944;51.574;6.980;2023-07-31T20:22:50;3.77;;;3.47;;
1887;SDS011;944;51.574;6.980;2023-07-31T20:25:24;4.00;;;3.50;;
1887;SDS011;944;51.574;6.980;2023-07-31T20:28:09;7.60;;;3.90;;
1887;SDS011;944;51.574;6.980;2023-07-31T20:30:55;6.90;;;4.03;;
1887;SDS011;944;51.574;6.980;2023-07-31T20:33:31;5.90;;;3.70;;
1887;SDS011;944;51.574;6.980;2023-07-31T20:36:06;4.00;;;3.47;;
1887;SDS011;944;51.574;6.980;2023-07-31T20:38:53;4.63;;;3.73;;
1887;SDS011;944;51.574;6.980;2023-07-31T20:41:39;7.50;;;3.57;;
1887;SDS011;944;51.574;6.980;2023-07-31T20:44:27;4.83;;;3.37;;
1887;SDS011;944;51.574;6.980;2023-07-31T20:47:09;4.53;;;3.60;;
1887;SDS011;944;51.574;6.980;2023-07-31T20:49:51;6.17;;;3.60;;
1887;SDS011;944;51.574;6.980;2023-07-31T20:52:28;3.53;;;3.10;;
1887;SDS011;944;51.574;6.980;2023-07-31T20:55:05;5.93;;;3.53;;
1887;SDS011;944;51.574;6.980;2023-07-31T20:57:37;6.20;;;3.20;;
1887;SDS011;944;51.574;6.980;2023-07-31T21:00:10;5.23;;;3.40;;
1887;SDS011;944;51.574;6.980;2023-07-31T21:02:41;5.13;;;2.90;;
1887;SDS011;944;51.574;6.980;2023-07-31T21:05:08;5.03;;;2.57;;
1887;SDS011;944;51.574;6.980;2023-07-31T21:07:36;6.80;;;3.23;;
1887;SDS011;944;51.574;6.980;2023-07-31T21:10:07;5.83;;;2.93;;
1887;SDS011;944;51.574;6.980;2023-07-31T21:12:37;3.00;;;2.70;;
1887;SDS011;944;51.574;6.980;2023-07-31T21:15:09;5.73;;;3.30;;
1887;SDS011;944;51.574;6.980;2023-07-31T21:17:41;4.07;;;2.90;;
1887;SDS011;944;51.574;6.980;2023-07-31T21:20:17;6.93;;;3.20;;
1887;SDS011;944;51.574;6.980;2023-07-31T21:23:14;3.20;;;2.90;;
1887;SDS011;944;51.574;6.980;2023-07-31T21:26:09;5.03;;;3.53;;
1887;SDS011;944;51.574;6.980;2023-07-31T21:29:10;3.63;;;3.23;;
1887;SDS011;944;51.574;6.980;2023-07-31T21:31:41;5.70;;;3.30;;
1887;SDS011;944;51.574;6.980;2023-07-31T21:34:17;7.03;;;3.60;;
1887;SDS011;944;51.574;6.980;2023-07-31T21:37:11;7.90;;;3.23;;
1887;SDS011;944;51.574;6.980;2023-07-31T21:46:56;4.40;;;3.30;;
1887;SDS011;944;51.574;6.980;2023-07-31T21:54:02;3.90;;;2.40;;
1887;SDS011;944;51.574;6.980;2023-07-31T21:57:11;3.57;;;1.90;;